createdAt,value
2023-02-23T00:01:27.880Z,5.10
2023-02-23T00:03:57.135Z,5.07
2023-02-23T00:06:25.820Z,5.00
2023-02-23T00:08:53.019Z,5.47
2023-02-23T00:11:21.056Z,4.93
2023-02-23T00:13:52.600Z,5.63
2023-02-23T00:16:23.821Z,5.35
2023-02-23T00:18:56.932Z,5.10
2023-02-23T00:21:46.808Z,4.90
2023-02-23T00:24:19.788Z,5.50
2023-02-23T00:26:48.358Z,5.40
2023-02-23T00:29:18.823Z,4.95
2023-02-23T00:31:48.295Z,5.28
2023-02-23T00:34:21.015Z,5.07
2023-02-23T00:36:51.695Z,4.70
2023-02-23T00:39:21.785Z,5.55
2023-02-23T00:41:49.835Z,6.18
2023-02-23T00:44:17.285Z,5.40
2023-02-23T00:46:45.796Z,5.03
2023-02-23T00:49:13.638Z,5.40
2023-02-23T00:51:41.720Z,5.55
2023-02-23T00:54:11.674Z,5.20
2023-02-23T00:56:39.709Z,5.00
2023-02-23T00:59:07.054Z,5.68
2023-02-23T01:01:34.073Z,5.45
2023-02-23T01:04:01.644Z,5.57
2023-02-23T01:06:28.453Z,5.45
2023-02-23T01:08:58.065Z,5.75
2023-02-23T01:11:28.044Z,4.82
2023-02-23T01:13:58.080Z,5.80
2023-02-23T01:16:28.812Z,5.10
2023-02-23T01:18:58.475Z,5.05
2023-02-23T01:21:29.149Z,5.45
2023-02-23T01:23:56.495Z,5.72
2023-02-23T01:26:31.612Z,5.63
2023-02-23T01:29:01.775Z,4.82
2023-02-23T01:31:29.976Z,5.07
2023-02-23T01:33:59.849Z,5.57
2023-02-23T01:36:29.226Z,5.43
2023-02-23T01:38:57.466Z,5.15
2023-02-23T01:41:27.926Z,4.60
2023-02-23T01:44:00.308Z,4.90
2023-02-23T01:46:27.295Z,5.45
2023-02-23T01:48:56.505Z,5.18
2023-02-23T01:51:28.055Z,5.53
2023-02-23T01:54:08.043Z,5.40
2023-02-23T01:56:43.502Z,4.95
2023-02-23T01:59:15.330Z,5.55
2023-02-23T02:01:43.629Z,5.88
2023-02-23T02:04:16.918Z,5.55
2023-02-23T02:06:48.282Z,5.43
2023-02-23T02:11:46.639Z,5.60
2023-02-23T02:14:20.582Z,5.88
2023-02-23T02:17:16.105Z,6.68
2023-02-23T02:20:06.523Z,6.25
2023-02-23T02:22:54.225Z,6.22
2023-02-23T02:25:50.354Z,6.35
2023-02-23T02:28:46.086Z,5.60
2023-02-23T02:31:45.325Z,5.00
2023-02-23T02:34:26.049Z,5.93
2023-02-23T02:37:20.994Z,5.70
2023-02-23T02:40:17.978Z,5.88
2023-02-23T02:42:59.986Z,5.22
2023-02-23T02:45:39.032Z,6.45
2023-02-23T02:48:25.896Z,6.43
2023-02-23T02:50:58.496Z,6.10
2023-02-23T02:53:41.717Z,5.78
2023-02-23T02:56:11.004Z,5.85
2023-02-23T02:58:39.134Z,6.28
2023-02-23T03:01:32.074Z,6.32
2023-02-23T03:04:21.135Z,6.25
2023-02-23T03:07:16.466Z,5.63
2023-02-23T03:10:33.272Z,5.20
2023-02-23T03:13:24.589Z,5.60
2023-02-23T03:16:28.214Z,5.57
2023-02-23T03:19:26.106Z,5.85
2023-02-23T03:22:24.197Z,5.97
2023-02-23T03:25:25.026Z,6.35
2023-02-23T03:28:10.576Z,5.80
2023-02-23T03:31:02.932Z,6.15
2023-02-23T03:34:20.633Z,5.72
2023-02-23T03:37:14.218Z,5.93
2023-02-23T03:40:09.803Z,6.22
2023-02-23T03:42:56.859Z,5.85
2023-02-23T03:45:45.038Z,6.20
2023-02-23T03:48:35.278Z,6.72
2023-02-23T03:51:27.886Z,5.90
2023-02-23T03:54:28.945Z,5.80
2023-02-23T03:57:17.928Z,6.88
2023-02-23T04:00:10.236Z,5.88
2023-02-23T04:03:06.606Z,6.05
2023-02-23T04:05:56.397Z,5.90
2023-02-23T04:08:47.173Z,5.93
2023-02-23T04:11:41.543Z,5.95
2023-02-23T04:14:17.199Z,6.25
2023-02-23T04:16:45.314Z,5.38
2023-02-23T04:19:12.728Z,6.63
2023-02-23T04:21:39.657Z,5.95
2023-02-23T04:24:06.754Z,6.75
2023-02-23T04:26:33.764Z,6.60
2023-02-23T04:29:00.649Z,6.78
2023-02-23T04:31:27.794Z,6.28
2023-02-23T04:33:54.730Z,7.57
2023-02-23T04:36:21.562Z,6.50
2023-02-23T04:38:48.448Z,5.85
2023-02-23T04:41:15.520Z,7.70
2023-02-23T04:43:42.441Z,9.20
2023-02-23T04:46:09.853Z,7.13
2023-02-23T04:48:37.038Z,6.80
2023-02-23T04:51:04.523Z,6.35
2023-02-23T04:53:31.244Z,7.47
2023-02-23T04:55:58.572Z,9.05
2023-02-23T04:58:25.341Z,6.95
2023-02-23T05:00:53.223Z,6.63
2023-02-23T05:03:20.013Z,6.97
2023-02-23T05:05:47.112Z,9.82
2023-02-23T05:08:13.996Z,9.95
2023-02-23T05:10:40.935Z,9.27
2023-02-23T05:13:07.755Z,13.15
2023-02-23T05:15:34.786Z,12.52
2023-02-23T05:18:01.555Z,9.52
2023-02-23T05:20:29.308Z,9.43
2023-02-23T05:22:56.182Z,8.55
2023-02-23T05:25:23.304Z,11.32
2023-02-23T05:27:50.132Z,9.50
2023-02-23T05:30:17.594Z,10.68
2023-02-23T05:32:44.895Z,8.98
2023-02-23T05:35:12.462Z,8.25
2023-02-23T05:37:39.438Z,9.05
2023-02-23T05:40:07.489Z,8.50
2023-02-23T05:42:34.235Z,9.73
2023-02-23T05:45:01.189Z,11.07
2023-02-23T05:47:28.079Z,13.70
2023-02-23T05:49:54.879Z,11.98
2023-02-23T05:52:25.063Z,13.40
2023-02-23T05:54:52.409Z,10.65
2023-02-23T05:57:19.187Z,12.43
2023-02-23T05:59:46.810Z,13.35
2023-02-23T06:02:13.670Z,11.02
2023-02-23T06:04:42.245Z,26.38
2023-02-23T06:07:09.096Z,33.92
2023-02-23T06:09:36.312Z,24.55
2023-02-23T06:12:03.119Z,22.25
2023-02-23T06:14:29.981Z,18.95
2023-02-23T06:16:56.878Z,13.43
2023-02-23T06:19:24.195Z,13.48
2023-02-23T06:21:53.231Z,10.07
2023-02-23T06:24:20.343Z,9.30
2023-02-23T06:26:47.124Z,10.50
2023-02-23T06:29:14.698Z,10.95
2023-02-23T06:31:41.878Z,17.85
2023-02-23T06:34:09.847Z,15.70
2023-02-23T06:36:37.177Z,19.15
2023-02-23T06:39:05.557Z,23.70
2023-02-23T06:41:33.010Z,14.30
2023-02-23T06:43:59.946Z,20.02
2023-02-23T06:46:26.978Z,21.48
2023-02-23T06:48:57.884Z,17.00
2023-02-23T06:51:24.905Z,13.88
2023-02-23T06:53:55.100Z,14.60
2023-02-23T06:56:22.247Z,10.07
2023-02-23T06:58:49.120Z,8.20
2023-02-23T07:01:17.277Z,8.90
2023-02-23T07:03:44.272Z,9.82
2023-02-23T07:06:11.287Z,10.40
2023-02-23T07:08:38.813Z,8.10
2023-02-23T07:11:10.598Z,8.88
2023-02-23T07:13:37.681Z,9.45
2023-02-23T07:16:05.224Z,10.43
2023-02-23T07:18:32.223Z,12.45
2023-02-23T07:20:59.147Z,12.65
2023-02-23T07:23:25.925Z,12.52
2023-02-23T07:25:56.666Z,12.52
2023-02-23T07:28:25.854Z,15.63
2023-02-23T07:30:56.887Z,13.95
2023-02-23T07:33:24.928Z,13.93
2023-02-23T07:35:51.965Z,14.82
2023-02-23T07:38:19.107Z,13.98
2023-02-23T07:40:46.062Z,12.80
2023-02-23T07:43:13.274Z,10.95
2023-02-23T07:45:40.092Z,11.20
2023-02-23T07:48:07.403Z,9.90
2023-02-23T07:50:34.151Z,10.10
2023-02-23T07:53:01.472Z,9.63
2023-02-23T07:55:28.391Z,7.63
2023-02-23T07:57:55.519Z,7.95
2023-02-23T08:00:22.521Z,8.35
2023-02-23T08:02:49.468Z,6.90
2023-02-23T08:05:16.667Z,7.60
2023-02-23T08:07:43.441Z,8.32
2023-02-23T08:10:11.353Z,15.85
2023-02-23T08:12:38.347Z,6.00
2023-02-23T08:15:08.860Z,5.90
2023-02-23T08:17:40.211Z,5.78
2023-02-23T08:20:08.928Z,5.97
2023-02-23T08:22:48.562Z,6.15
2023-02-23T08:25:18.388Z,6.57
2023-02-23T08:27:45.672Z,5.78
2023-02-23T08:30:14.175Z,6.82
2023-02-23T08:32:41.243Z,7.00
2023-02-23T08:35:10.161Z,6.53
2023-02-23T08:37:37.386Z,6.35
2023-02-23T08:40:05.322Z,7.00
2023-02-23T08:42:32.278Z,5.43
2023-02-23T08:45:01.463Z,5.70
2023-02-23T08:47:28.594Z,6.43
2023-02-23T08:49:55.530Z,5.80
2023-02-23T08:52:22.386Z,5.50
2023-02-23T08:54:49.415Z,5.43
2023-02-23T08:57:16.213Z,5.57
2023-02-23T08:59:43.155Z,5.00
2023-02-23T09:02:14.278Z,5.10
2023-02-23T09:04:44.816Z,4.68
2023-02-23T09:07:17.411Z,4.78
2023-02-23T09:09:44.484Z,4.97
2023-02-23T09:12:11.316Z,4.97
2023-02-23T09:14:38.300Z,4.45
2023-02-23T09:17:05.175Z,5.65
2023-02-23T09:19:32.167Z,5.50
2023-02-23T09:21:58.990Z,5.38
2023-02-23T09:24:26.114Z,4.13
2023-02-23T09:26:53.897Z,5.10
2023-02-23T09:29:21.435Z,4.25
2023-02-23T09:31:48.404Z,6.07
2023-02-23T09:34:15.417Z,5.38
2023-02-23T09:36:45.455Z,4.72
2023-02-23T09:39:12.478Z,5.50
2023-02-23T09:41:56.351Z,6.28
2023-02-23T09:44:45.539Z,4.32
2023-02-23T09:47:33.557Z,4.82
2023-02-23T09:50:06.493Z,5.40
2023-02-23T09:52:42.622Z,5.75
2023-02-23T09:55:13.152Z,4.65
2023-02-23T09:57:44.754Z,4.45
2023-02-23T10:00:20.296Z,4.25
2023-02-23T10:03:12.064Z,5.53
2023-02-23T10:05:44.214Z,5.15
2023-02-23T10:08:28.930Z,3.95
2023-02-23T10:11:15.083Z,3.80
2023-02-23T10:14:05.313Z,4.40
2023-02-23T10:17:00.947Z,4.63
2023-02-23T10:19:55.164Z,3.05
2023-02-23T10:22:22.470Z,3.30
2023-02-23T10:25:00.605Z,3.00
2023-02-23T10:27:40.677Z,3.47
2023-02-23T10:30:24.413Z,3.60
2023-02-23T10:33:13.399Z,5.07
2023-02-23T10:35:40.500Z,3.45
2023-02-23T10:38:17.674Z,3.75
2023-02-23T10:41:06.171Z,5.00
2023-02-23T10:43:33.416Z,4.18
2023-02-23T10:46:00.358Z,3.47
2023-02-23T10:48:39.970Z,3.85
2023-02-23T10:51:14.509Z,4.35
2023-02-23T10:53:41.746Z,4.25
2023-02-23T10:56:15.006Z,4.03
2023-02-23T10:58:51.194Z,3.00
2023-02-23T11:01:32.932Z,5.68
2023-02-23T11:04:24.069Z,3.63
2023-02-23T11:07:06.027Z,4.13
2023-02-23T11:09:45.633Z,3.78
2023-02-23T11:12:22.064Z,3.25
2023-02-23T11:14:58.637Z,2.90
2023-02-23T11:17:37.632Z,3.33
2023-02-23T11:20:13.213Z,3.50
2023-02-23T11:22:42.534Z,4.00
2023-02-23T11:25:23.645Z,3.58
2023-02-23T11:27:57.155Z,3.80
2023-02-23T11:30:31.171Z,4.60
2023-02-23T11:33:09.613Z,3.35
2023-02-23T11:35:38.313Z,3.45
2023-02-23T11:38:26.992Z,2.97
2023-02-23T11:41:24.012Z,2.90
2023-02-23T11:43:57.095Z,3.25
2023-02-23T11:46:25.941Z,3.22
2023-02-23T11:49:02.832Z,3.42
2023-02-23T11:51:35.179Z,2.63
2023-02-23T11:54:05.787Z,3.63
2023-02-23T11:56:35.484Z,4.47
2023-02-23T11:59:15.896Z,3.40
2023-02-23T12:01:46.848Z,2.58
2023-02-23T12:04:37.475Z,3.55
2023-02-23T12:07:41.583Z,5.10
2023-02-23T12:10:19.891Z,7.88
2023-02-23T12:13:24.222Z,21.27
2023-02-23T12:16:03.342Z,7.20
2023-02-23T12:18:39.313Z,25.13
2023-02-23T12:21:25.374Z,4.63
2023-02-23T12:24:03.057Z,3.58
2023-02-23T12:26:33.872Z,2.63
2023-02-23T12:29:13.591Z,4.68
2023-02-23T12:31:54.455Z,3.42
2023-02-23T12:34:31.231Z,8.45
2023-02-23T12:37:10.584Z,12.85
2023-02-23T12:39:43.462Z,3.30
2023-02-23T12:42:29.087Z,24.05
2023-02-23T12:45:03.018Z,5.10
2023-02-23T12:47:49.782Z,2.70
2023-02-23T12:50:37.828Z,1.88
2023-02-23T12:53:42.450Z,2.97
2023-02-23T12:56:35.823Z,3.38
2023-02-23T12:59:13.514Z,3.05
2023-02-23T13:01:46.428Z,2.75
2023-02-23T13:05:04.966Z,2.83
2023-02-23T13:07:45.282Z,3.13
2023-02-23T13:10:39.937Z,2.60
2023-02-23T13:13:31.153Z,2.40
2023-02-23T13:16:22.798Z,2.22
2023-02-23T13:21:41.920Z,2.95
2023-02-23T13:24:19.228Z,3.17
2023-02-23T13:27:03.589Z,2.88
2023-02-23T13:29:40.748Z,2.33
2023-02-23T13:32:17.953Z,2.22
2023-02-23T13:34:50.255Z,2.83
2023-02-23T13:37:20.953Z,2.63
2023-02-23T13:39:56.601Z,4.30
2023-02-23T13:42:48.836Z,2.47
2023-02-23T13:45:37.705Z,3.65
2023-02-23T13:48:17.042Z,2.28
2023-02-23T13:51:00.445Z,2.15
2023-02-23T13:53:39.715Z,2.42
2023-02-23T13:56:16.559Z,5.13
2023-02-23T13:58:51.642Z,3.42
2023-02-23T14:01:23.058Z,2.17
2023-02-23T14:03:57.333Z,2.88
2023-02-23T14:06:27.699Z,2.17
2023-02-23T14:09:08.297Z,3.40
2023-02-23T14:11:53.796Z,2.83
2023-02-23T14:14:36.778Z,3.08
2023-02-23T14:17:20.086Z,3.08
2023-02-23T14:19:56.644Z,3.20
2023-02-23T14:22:23.862Z,3.00
2023-02-23T14:25:27.900Z,3.47
2023-02-23T14:28:06.817Z,4.82
2023-02-23T14:31:03.306Z,2.17
2023-02-23T14:33:36.364Z,3.03
2023-02-23T14:36:26.589Z,3.30
2023-02-23T14:38:53.459Z,2.88
2023-02-23T14:41:26.795Z,3.92
2023-02-23T14:44:20.104Z,4.57
2023-02-23T14:47:16.848Z,3.28
2023-02-23T14:50:01.725Z,4.13
2023-02-23T14:52:33.449Z,8.77
2023-02-23T14:55:12.416Z,9.80
2023-02-23T14:57:42.310Z,5.15
2023-02-23T15:00:16.089Z,5.13
2023-02-23T15:03:02.103Z,3.25
2023-02-23T15:05:51.360Z,5.22
2023-02-23T15:08:23.064Z,7.85
2023-02-23T15:11:00.341Z,3.53
2023-02-23T15:16:06.720Z,5.55
2023-02-23T15:18:40.470Z,6.75
2023-02-23T15:21:14.205Z,4.30
2023-02-23T15:23:44.809Z,3.15
2023-02-23T15:26:39.528Z,2.70
2023-02-23T15:29:18.650Z,2.78
2023-02-23T15:31:52.393Z,3.17
2023-02-23T15:34:26.914Z,5.70
2023-02-23T15:37:14.737Z,3.28
2023-02-23T15:39:53.380Z,2.53
2023-02-23T15:42:33.483Z,2.65
2023-02-23T15:45:03.726Z,2.40
2023-02-23T15:47:36.719Z,3.22
2023-02-23T15:50:34.915Z,4.45
2023-02-23T15:53:13.900Z,3.53
2023-02-23T15:55:43.324Z,4.93
2023-02-23T15:58:32.775Z,5.82
2023-02-23T16:01:08.322Z,4.70
2023-02-23T16:03:37.674Z,4.60
2023-02-23T16:06:07.753Z,8.68
2023-02-23T16:08:36.907Z,6.80
2023-02-23T16:11:12.565Z,8.15
2023-02-23T16:13:46.750Z,7.35
2023-02-23T16:16:20.524Z,7.32
2023-02-23T16:18:53.465Z,5.60
2023-02-23T16:21:25.317Z,8.43
2023-02-23T16:23:55.970Z,6.25
2023-02-23T16:26:47.737Z,7.85
2023-02-23T16:29:20.081Z,6.07
2023-02-23T16:31:50.892Z,4.35
2023-02-23T16:34:31.620Z,6.70
2023-02-23T16:37:17.888Z,11.93
2023-02-23T16:39:45.610Z,4.43
2023-02-23T16:42:24.247Z,5.70
2023-02-23T16:44:51.289Z,4.95
2023-02-23T16:47:36.505Z,5.10
2023-02-23T16:50:19.968Z,3.00
2023-02-23T16:52:53.621Z,3.65
2023-02-23T16:55:26.048Z,4.07
2023-02-23T16:58:02.561Z,4.30
2023-02-23T17:00:32.486Z,4.72
2023-02-23T17:03:00.773Z,5.70
2023-02-23T17:05:29.347Z,4.75
2023-02-23T17:07:58.306Z,4.32
2023-02-23T17:10:33.567Z,3.70
2023-02-23T17:13:05.168Z,4.25
2023-02-23T17:15:39.615Z,5.95
2023-02-23T17:18:08.701Z,7.85
2023-02-23T17:20:35.524Z,6.13
2023-02-23T17:23:03.021Z,5.88
2023-02-23T17:25:30.180Z,6.90
2023-02-23T17:27:58.154Z,8.18
2023-02-23T17:30:25.835Z,2.97
2023-02-23T17:32:55.788Z,3.30
2023-02-23T17:35:24.389Z,4.80
2023-02-23T17:37:51.653Z,13.52
2023-02-23T17:40:32.448Z,6.10
2023-02-23T17:43:09.462Z,6.47
2023-02-23T17:45:42.773Z,8.38
2023-02-23T17:48:10.375Z,3.95
2023-02-23T17:50:46.648Z,7.30
2023-02-23T17:53:26.227Z,5.93
2023-02-23T17:55:57.640Z,8.98
2023-02-23T17:58:27.084Z,19.98
2023-02-23T18:00:58.884Z,12.02
2023-02-23T18:03:32.181Z,17.95
2023-02-23T18:06:00.982Z,10.82
2023-02-23T18:11:09.017Z,8.05
2023-02-23T18:13:37.125Z,7.50
2023-02-23T18:16:09.151Z,6.78
2023-02-23T18:18:38.791Z,11.77
2023-02-23T18:21:12.511Z,8.02
2023-02-23T18:23:39.836Z,5.10
2023-02-23T18:26:09.815Z,7.90
2023-02-23T18:28:38.613Z,4.85
2023-02-23T18:31:06.090Z,4.20
2023-02-23T18:33:35.937Z,3.92
2023-02-23T18:36:04.158Z,6.00
2023-02-23T18:38:31.080Z,7.20
2023-02-23T18:40:58.827Z,7.68
2023-02-23T18:43:25.598Z,5.55
2023-02-23T18:45:52.485Z,6.32
2023-02-23T18:48:20.573Z,6.68
2023-02-23T18:50:47.446Z,13.70
2023-02-23T18:53:14.505Z,6.40
2023-02-23T18:55:41.558Z,5.47
2023-02-23T18:58:08.589Z,4.80
2023-02-23T19:00:40.208Z,5.35
2023-02-23T19:03:07.452Z,3.90
2023-02-23T19:05:36.247Z,5.60
2023-02-23T19:08:08.676Z,5.13
2023-02-23T19:10:36.420Z,4.90
2023-02-23T19:13:03.241Z,4.25
2023-02-23T19:15:31.126Z,5.55
2023-02-23T19:17:58.011Z,5.32
2023-02-23T19:20:32.560Z,3.95
2023-02-23T19:22:59.590Z,3.38
2023-02-23T19:25:26.463Z,15.48
2023-02-23T19:27:53.638Z,4.13
2023-02-23T19:30:20.501Z,4.20
2023-02-23T19:32:47.916Z,3.45
2023-02-23T19:35:15.270Z,2.95
2023-02-23T19:37:47.702Z,4.15
2023-02-23T19:40:19.875Z,2.80
2023-02-23T19:42:49.667Z,3.45
2023-02-23T19:45:17.909Z,4.32
2023-02-23T19:47:46.688Z,10.98
2023-02-23T19:50:16.932Z,6.40
2023-02-23T19:52:45.624Z,4.83
2023-02-23T19:55:13.604Z,6.95
2023-02-23T19:57:40.654Z,4.63
2023-02-23T20:00:12.185Z,7.53
2023-02-23T20:02:44.477Z,3.45
2023-02-23T20:05:16.563Z,6.00
2023-02-23T20:07:43.671Z,4.50
2023-02-23T20:10:16.509Z,3.67
2023-02-23T20:12:44.596Z,5.18
2023-02-23T20:15:14.940Z,4.88
2023-02-23T20:17:42.436Z,6.03
2023-02-23T20:20:13.678Z,4.28
2023-02-23T20:22:45.062Z,4.65
2023-02-23T20:25:15.770Z,6.07
2023-02-23T20:27:44.055Z,5.23
2023-02-23T20:30:12.558Z,6.68
2023-02-23T20:32:39.889Z,4.45
2023-02-23T20:35:07.470Z,4.25
2023-02-23T20:37:34.455Z,5.60
2023-02-23T20:40:01.272Z,4.53
2023-02-23T20:42:28.672Z,4.22
2023-02-23T20:44:55.674Z,6.13
2023-02-23T20:47:24.739Z,5.03
2023-02-23T20:49:51.560Z,6.50
2023-02-23T20:52:18.471Z,5.10
2023-02-23T20:54:45.225Z,4.70
2023-02-23T20:57:12.849Z,3.58
2023-02-23T20:59:40.433Z,3.50
2023-02-23T21:02:09.124Z,6.60
2023-02-23T21:04:38.119Z,6.95
2023-02-23T21:07:05.610Z,3.53
2023-02-23T21:09:33.039Z,6.45
2023-02-23T21:12:00.088Z,6.45
2023-02-23T21:14:26.909Z,4.97
2023-02-23T21:16:53.944Z,11.60
2023-02-23T21:19:23.885Z,7.57
2023-02-23T21:21:57.974Z,5.38
2023-02-23T21:24:26.321Z,6.38
2023-02-23T21:26:53.069Z,4.25
2023-02-23T21:29:23.889Z,4.13
2023-02-23T21:31:51.134Z,4.13
2023-02-23T21:34:20.867Z,5.88
2023-02-23T21:36:48.347Z,5.22
2023-02-23T21:39:15.548Z,5.45
2023-02-23T21:41:42.373Z,7.03
2023-02-23T21:44:09.425Z,6.18
2023-02-23T21:46:36.582Z,6.40
2023-02-23T21:49:09.607Z,5.18
2023-02-23T21:51:37.014Z,5.70
2023-02-23T21:54:04.433Z,4.80
2023-02-23T21:56:32.821Z,3.75
2023-02-23T21:58:59.803Z,3.25
2023-02-23T22:01:29.778Z,4.70
2023-02-23T22:03:57.866Z,5.00
2023-02-23T22:06:28.096Z,3.63
2023-02-23T22:08:55.947Z,5.95
2023-02-23T22:11:26.960Z,5.72
2023-02-23T22:13:59.926Z,5.35
2023-02-23T22:16:32.188Z,4.97
2023-02-23T22:19:03.711Z,6.00
2023-02-23T22:21:33.602Z,6.55
2023-02-23T22:24:01.669Z,6.30
2023-02-23T22:26:30.349Z,5.38
2023-02-23T22:28:57.332Z,5.28
2023-02-23T22:31:24.813Z,4.35
2023-02-23T22:33:52.126Z,4.90
2023-02-23T22:36:19.184Z,4.22
2023-02-23T22:38:46.889Z,3.85
2023-02-23T22:41:13.928Z,4.45
2023-02-23T22:43:43.361Z,5.70
2023-02-23T22:46:10.994Z,6.53
2023-02-23T22:48:38.169Z,5.38
2023-02-23T22:51:05.434Z,4.05
2023-02-23T22:53:32.276Z,4.15
2023-02-23T22:55:59.669Z,4.95
2023-02-23T22:58:26.824Z,5.13
2023-02-23T23:01:04.986Z,4.75
2023-02-23T23:03:39.654Z,4.75
2023-02-23T23:06:10.170Z,4.38
2023-02-23T23:08:42.737Z,3.97
2023-02-23T23:11:13.721Z,3.85
2023-02-23T23:13:44.793Z,3.58
2023-02-23T23:18:54.476Z,3.70
2023-02-23T23:21:24.593Z,3.03
2023-02-23T23:23:54.277Z,3.50
2023-02-23T23:26:23.368Z,4.45
2023-02-23T23:29:01.243Z,4.63
2023-02-23T23:31:29.888Z,4.28
2023-02-23T23:34:00.267Z,4.40
2023-02-23T23:36:29.447Z,5.03
2023-02-23T23:38:56.648Z,4.43
2023-02-23T23:41:25.386Z,5.70
2023-02-23T23:43:54.887Z,5.18
2023-02-23T23:46:30.643Z,5.13
2023-02-23T23:49:04.686Z,4.47
2023-02-23T23:51:38.824Z,3.72
2023-02-23T23:54:08.366Z,4.25
2023-02-23T23:56:39.475Z,3.70
2023-02-23T23:59:11.137Z,3.78
